Time;durP1;ratioP1;P1;durP2;ratioP2;P2;SDS_P1;SDS_P2;PMS_P1;PMS_P2;Temp;Humidity;BMP_temperature;BMP_pressure;BME280_temperature;BME280_humidity;BME280_pressure;Samples;Min_cycle;Max_cycle;Signal;HPM_P1;HPM_P2
2022/07/19 00:04:22;;;;;;;7.43;5.20;;;17.90;87.10;;;;;;10476901;28;20190;-83
2022/07/19 00:09:43;;;;;;;6.70;5.88;;;17.90;93.60;;;;;;10482950;28;20235;-83
2022/07/19 00:15:09;;;;;;;6.18;5.57;;;17.90;92.00;;;;;;10484951;28;20226;-80
2022/07/19 00:20:31;;;;;;;5.22;4.72;;;17.90;96.80;;;;;;10481222;28;20223;-80
2022/07/19 00:25:52;;;;;;;7.55;4.88;;;17.90;92.50;;;;;;10482833;28;20195;-80
2022/07/19 00:31:14;;;;;;;6.55;4.40;;;17.90;96.90;;;;;;10484365;28;20521;-80
2022/07/19 00:36:35;;;;;;;6.35;4.40;;;17.90;97.60;;;;;;10482282;28;20198;-80
2022/07/19 00:41:56;;;;;;;5.97;4.32;;;17.90;96.90;;;;;;10481025;28;20220;-80
2022/07/19 00:47:18;;;;;;;7.25;4.97;;;17.90;99.00;;;;;;10483245;28;20383;-80
2022/07/19 00:52:40;;;;;;;8.77;5.68;;;17.90;99.90;;;;;;10483427;28;20241;-81
2022/07/19 00:58:02;;;;;;;5.72;5.13;;;17.80;99.90;;;;;;10455745;28;20188;-80
2022/07/19 01:03:25;;;;;;;6.95;5.30;;;17.90;99.90;;;;;;10467885;28;20268;-81
2022/07/19 01:08:46;;;;;;;9.75;5.75;;;17.90;98.60;;;;;;10480132;28;20195;-80
2022/07/19 01:14:08;;;;;;;6.63;5.15;;;17.80;99.90;;;;;;10493909;28;20237;-80
2022/07/19 01:19:29;;;;;;;8.32;5.20;;;17.80;99.90;;;;;;10509885;28;20269;-80
2022/07/19 01:24:50;;;;;;;7.40;4.88;;;17.80;99.90;;;;;;10479178;28;20359;-80
2022/07/19 01:30:14;;;;;;;5.90;4.80;;;17.70;99.90;;;;;;10480362;28;20195;-80
2022/07/19 01:35:35;;;;;;;7.18;5.07;;;17.70;99.90;;;;;;10479156;28;20267;-81
2022/07/19 01:40:58;;;;;;;5.15;4.65;;;17.70;99.90;;;;;;10478646;28;20270;-80
2022/07/19 01:46:19;;;;;;;7.70;5.43;;;17.70;99.90;;;;;;10478408;28;20211;-80
2022/07/19 01:51:41;;;;;;;5.38;4.88;;;17.70;99.90;;;;;;10464750;28;20266;-80
2022/07/19 01:57:02;;;;;;;6.10;5.10;;;17.70;99.90;;;;;;10478300;28;20203;-81
2022/07/19 02:02:24;;;;;;;8.32;5.55;;;17.70;99.90;;;;;;10463740;28;20269;-86
2022/07/19 02:07:45;;;;;;;6.75;5.20;;;17.70;99.90;;;;;;10479610;28;20444;-85
2022/07/19 02:13:06;;;;;;;8.52;5.65;;;17.70;99.90;;;;;;10480692;28;20551;-82
2022/07/19 02:18:28;;;;;;;7.30;4.93;;;17.60;99.90;;;;;;10477182;28;20216;-80
2022/07/19 02:23:49;;;;;;;6.72;4.80;;;17.60;99.90;;;;;;10462592;28;20380;-81
2022/07/19 02:29:12;;;;;;;8.07;5.25;;;17.60;99.90;;;;;;10477574;28;20238;-84
2022/07/19 02:34:34;;;;;;;8.60;5.10;;;17.60;99.90;;;;;;10479501;28;20486;-86
2022/07/19 02:39:56;;;;;;;8.32;4.90;;;17.60;99.90;;;;;;10465571;28;20306;-84
2022/07/19 02:45:17;;;;;;;10.27;5.88;;;17.60;99.90;;;;;;10479430;28;20203;-84
2022/07/19 02:50:39;;;;;;;10.27;5.57;;;17.60;99.90;;;;;;10463162;28;20215;-86
2022/07/19 02:56:00;;;;;;;9.88;5.35;;;17.50;99.90;;;;;;10462712;28;20227;-86
2022/07/19 03:01:21;;;;;;;9.55;5.95;;;17.50;99.90;;;;;;10476447;28;20451;-84
2022/07/19 03:06:43;;;;;;;8.35;5.57;;;17.50;99.90;;;;;;10462171;28;20421;-81
2022/07/19 03:12:05;;;;;;;8.48;5.40;;;17.50;99.90;;;;;;10461864;28;20321;-84
2022/07/19 03:17:26;;;;;;;6.85;5.70;;;17.60;99.90;;;;;;10476369;28;20418;-81
2022/07/19 03:22:48;;;;;;;8.52;5.18;;;17.60;99.90;;;;;;10454148;28;20269;-85
2022/07/19 03:28:10;;;;;;;8.45;5.97;;;17.60;99.90;;;;;;10476100;28;20547;-81
2022/07/19 03:33:31;;;;;;;7.55;5.28;;;17.50;99.90;;;;;;10475642;28;20217;-80
2022/07/19 03:38:53;;;;;;;8.30;5.57;;;17.40;99.90;;;;;;10482194;28;20230;-84
2022/07/19 03:44:14;;;;;;;9.18;5.20;;;17.40;99.90;;;;;;10484782;28;20481;-86
2022/07/19 03:49:37;;;;;;;10.23;5.50;;;17.30;99.90;;;;;;10486527;28;20204;-86
2022/07/19 03:54:58;;;;;;;8.23;5.78;;;17.40;99.90;;;;;;10483758;28;20231;-85
2022/07/19 04:00:21;;;;;;;8.35;6.45;;;17.30;99.90;;;;;;10483357;28;20281;-87
2022/07/19 04:05:43;;;;;;;9.45;6.22;;;17.30;99.90;;;;;;10483248;28;20188;-85
2022/07/19 04:11:05;;;;;;;7.50;5.70;;;17.30;99.90;;;;;;10483672;28;20250;-86
2022/07/19 04:16:27;;;;;;;7.35;5.20;;;17.30;99.90;;;;;;10513853;28;20199;-84
2022/07/19 04:21:48;;;;;;;6.32;5.35;;;17.30;99.90;;;;;;10482268;28;20533;-85
2022/07/19 04:27:09;;;;;;;9.00;5.90;;;17.30;99.90;;;;;;10482053;28;20506;-85
2022/07/19 04:32:31;;;;;;;6.60;5.82;;;17.40;99.90;;;;;;10467902;28;20219;-84
2022/07/19 04:37:53;;;;;;;8.70;5.63;;;17.30;99.90;;;;;;10484416;28;20198;-85
2022/07/19 04:43:16;;;;;;;8.30;5.75;;;17.40;99.90;;;;;;10467058;28;20395;-86
2022/07/19 04:48:38;;;;;;;8.85;6.10;;;17.40;99.90;;;;;;10480678;28;20214;-86
2022/07/19 04:53:59;;;;;;;7.43;5.95;;;17.30;99.90;;;;;;10483600;28;20253;-86
2022/07/19 04:59:21;;;;;;;7.78;5.65;;;17.40;99.90;;;;;;10456607;28;20239;-84
2022/07/19 05:04:42;;;;;;;9.82;5.93;;;17.40;99.90;;;;;;10467526;28;20205;-85
2022/07/19 05:10:05;;;;;;;9.55;6.22;;;17.40;99.90;;;;;;10494295;28;20544;-80
2022/07/19 05:15:26;;;;;;;7.55;6.18;;;17.50;99.90;;;;;;10508931;28;20195;-82
2022/07/19 05:20:48;;;;;;;8.73;5.63;;;17.70;97.60;;;;;;10499985;28;20249;-83
2022/07/19 05:26:09;;;;;;;9.82;5.60;;;17.80;90.80;;;;;;10479496;28;20199;-81
2022/07/19 05:31:31;;;;;;;8.00;5.82;;;18.00;75.00;;;;;;10482448;28;20223;-84
2022/07/19 05:36:52;;;;;;;9.20;5.90;;;18.20;43.80;;;;;;10479442;28;20606;-84
2022/07/19 05:42:14;;;;;;;8.85;5.60;;;18.40;17.80;;;;;;10464907;28;20254;-84
2022/07/19 05:47:35;;;;;;;8.55;6.25;;;18.60;9.20;;;;;;10464930;28;20206;-84
2022/07/19 05:52:56;;;;;;;8.98;5.18;;;18.90;1.00;;;;;;10478744;28;20183;-84
2022/07/19 05:58:18;;;;;;;7.43;4.55;;;19.20;1.00;;;;;;10478617;28;20230;-86
2022/07/19 06:03:39;;;;;;;6.63;5.22;;;19.40;1.00;;;;;;10480655;28;20227;-86
2022/07/19 06:09:01;;;;;;;7.53;5.30;;;19.70;1.00;;;;;;10480126;28;20501;-85
2022/07/19 06:14:22;;;;;;;7.97;5.65;;;19.90;1.00;;;;;;10497228;28;20373;-85
2022/07/19 06:19:44;;;;;;;6.65;5.50;;;20.10;1.00;;;;;;10477980;28;20219;-84
2022/07/19 06:25:06;;;;;;;7.45;5.20;;;20.40;1.00;;;;;;10463153;28;20204;-85
2022/07/19 06:30:28;;;;;;;9.02;5.03;;;20.70;1.00;;;;;;10477474;28;20212;-84
2022/07/19 06:35:49;;;;;;;8.60;5.78;;;21.00;1.00;;;;;;10477721;28;20385;-85
2022/07/19 06:41:11;;;;;;;5.90;5.18;;;21.30;1.00;;;;;;10476322;28;20234;-80
2022/07/19 06:46:33;;;;;;;8.68;5.25;;;21.90;99.90;;;;;;10462786;28;20270;-85
2022/07/19 06:51:54;;;;;;;8.45;5.15;;;22.60;99.90;;;;;;10462433;28;20222;-81
2022/07/19 06:57:15;;;;;;;8.13;5.60;;;23.20;1.00;;;;;;10476071;28;20199;-82
2022/07/19 07:02:38;;;;;;;10.45;5.00;;;23.80;1.00;;;;;;10462140;28;20226;-86
2022/07/19 07:07:59;;;;;;;7.40;4.72;;;24.30;99.90;;;;;;10476577;28;20210;-81
2022/07/19 07:13:20;;;;;;;10.88;5.65;;;25.00;44.00;;;;;;10482266;28;20223;-80
2022/07/19 07:18:42;;;;;;;6.57;4.95;;;25.50;99.90;;;;;;10445953;28;20468;-81
2022/07/19 07:24:05;;;;;;;9.30;5.47;;;;;;;;;;10479270;28;20211;-83
2022/07/19 07:29:27;;;;;;;6.43;4.90;;;25.60;1.00;;;;;;10465244;28;20231;-85
2022/07/19 07:34:49;;;;;;;7.50;5.20;;;26.20;1.00;;;;;;10477682;28;20205;-81
2022/07/19 07:40:11;;;;;;;6.82;5.05;;;;;;;;;;10479353;28;20219;-81
2022/07/19 07:45:33;;;;;;;8.07;5.20;;;27.10;1.00;;;;;;10478987;28;20263;-86
2022/07/19 07:50:54;;;;;;;10.05;5.40;;;27.20;1.00;;;;;;10481221;28;20200;-87
2022/07/19 07:56:15;;;;;;;7.95;4.85;;;27.60;99.90;;;;;;10478950;28;20548;-83
2022/07/19 08:01:39;;;;;;;9.15;4.35;;;27.70;1.00;;;;;;10477680;28;20245;-85
2022/07/19 08:07:00;;;;;;;8.65;5.18;;;27.90;1.00;;;;;;10477417;28;20279;-85
2022/07/19 08:12:23;;;;;;;5.75;4.85;;;28.30;99.90;;;;;;10472504;28;20278;-80
2022/07/19 08:17:44;;;;;;;8.63;5.10;;;28.80;7.10;;;;;;10466280;28;20227;-78
2022/07/19 08:23:06;;;;;;;5.60;4.30;;;29.20;1.00;;;;;;10517140;28;20222;-83
2022/07/19 08:28:27;;;;;;;8.65;6.05;;;29.30;1.00;;;;;;10506587;28;20368;-83
2022/07/19 08:33:49;;;;;;;7.00;4.90;;;29.50;1.00;;;;;;10520190;28;20206;-81
2022/07/19 08:39:10;;;;;;;7.15;5.28;;;29.50;1.00;;;;;;10518472;28;20700;-84
2022/07/19 08:44:34;;;;;;;6.72;4.85;;;29.60;1.00;;;;;;10516838;28;20490;-84
2022/07/19 08:49:58;;;;;;;5.63;4.53;;;29.60;1.00;;;;;;10478340;28;20214;-82
2022/07/19 08:55:20;;;;;;;7.70;4.07;;;29.90;99.90;;;;;;10486550;28;20219;-82
2022/07/19 09:00:42;;;;;;;6.28;4.10;;;30.40;99.90;;;;;;10519743;28;20231;-86
2022/07/19 09:06:04;;;;;;;5.13;4.30;;;30.70;99.90;;;;;;10531898;28;20413;-82
2022/07/19 09:11:36;;;;;;;5.82;3.67;;;30.70;99.90;;;;;;10516273;28;20230;-81
2022/07/19 09:17:01;;;;;;;4.85;3.55;;;30.60;99.90;;;;;;10508202;28;20255;-82
2022/07/19 09:22:22;;;;;;;9.52;4.25;;;30.80;1.00;;;;;;10501427;28;20234;-83
2022/07/19 09:27:57;;;;;;;9.10;4.00;;;30.80;1.00;;;;;;10503861;28;20199;-81
2022/07/19 09:33:23;;;;;;;7.32;3.63;;;31.00;1.00;;;;;;10514959;28;20494;-80
2022/07/19 09:38:45;;;;;;;5.47;3.58;;;31.20;99.90;;;;;;10515290;28;20195;-85
2022/07/19 09:44:06;;;;;;;7.32;5.47;;;31.30;1.00;;;;;;10515720;28;20223;-84
2022/07/19 09:49:27;;;;;;;7.22;3.72;;;31.40;99.90;;;;;;10501042;28;20207;-81
2022/07/19 09:54:52;;;;;;;3.95;3.38;;;31.50;1.00;;;;;;10515881;28;20203;-78
2022/07/19 10:00:15;;;;;;;8.63;3.30;;;31.50;99.90;;;;;;10514556;28;20226;-82
2022/07/19 10:05:39;;;;;;;6.00;3.35;;;31.80;99.90;;;;;;10516812;28;20266;-85
2022/07/19 10:11:00;;;;;;;6.18;3.40;;;31.80;99.90;;;;;;10514941;28;20265;-82
2022/07/19 10:16:38;;;;;;;4.07;3.35;;;31.80;99.90;;;;;;10512801;28;20260;-81
2022/07/19 10:22:02;;;;;;;4.97;3.45;;;32.00;99.90;;;;;;10500989;28;20250;-83
2022/07/19 10:27:24;;;;;;;6.03;3.78;;;32.30;99.90;;;;;;10514507;28;20187;-81
2022/07/19 10:32:47;;;;;;;5.82;3.08;;;32.40;99.90;;;;;;10498710;28;20205;-85
2022/07/19 10:38:11;;;;;;;6.72;3.78;;;32.50;71.80;;;;;;10498658;28;20191;-82
2022/07/19 10:43:32;;;;;;;5.90;3.50;;;32.40;99.90;;;;;;10527773;28;20222;-84
2022/07/19 10:48:56;;;;;;;3.60;3.30;;;32.40;74.60;;;;;;10498395;28;20197;-83
2022/07/19 10:54:17;;;;;;;6.05;3.47;;;32.30;1.00;;;;;;10501124;28;20191;-81
2022/07/19 10:59:42;;;;;;;6.15;3.13;;;32.60;36.50;;;;;;10515995;28;20211;-85
2022/07/19 11:05:04;;;;;;;6.82;3.42;;;32.60;1.00;;;;;;10498897;28;20199;-84
2022/07/19 11:10:28;;;;;;;22.27;3.92;;;32.60;10.60;;;;;;10498841;28;20231;-82
2022/07/19 11:15:57;;;;;;;4.10;3.60;;;32.70;1.00;;;;;;10515463;28;20219;-82
2022/07/19 11:21:18;;;;;;;4.80;3.20;;;32.50;1.00;;;;;;10510386;28;20304;-83
2022/07/19 11:26:40;;;;;;;5.40;3.60;;;32.20;1.00;;;;;;10513922;28;20211;-81
2022/07/19 11:32:05;;;;;;;6.22;3.88;;;32.40;1.00;;;;;;10512420;28;20203;-83
2022/07/19 11:37:29;;;;;;;6.88;3.70;;;32.50;32.90;;;;;;10512837;28;20241;-84
2022/07/19 11:42:51;;;;;;;4.75;3.53;;;32.50;1.00;;;;;;10498193;28;20258;-83
2022/07/19 11:48:32;;;;;;;4.55;3.38;;;32.40;1.00;;;;;;10504076;28;20221;-88
2022/07/19 11:53:55;;;;;;;3.90;2.88;;;32.50;1.00;;;;;;10498926;28;20207;-87
2022/07/19 11:59:17;;;;;;;6.82;3.40;;;32.60;1.00;;;;;;10489945;28;20424;-85
2022/07/19 12:04:39;;;;;;;3.28;2.97;;;32.60;1.00;;;;;;10515278;28;20270;-85
2022/07/19 12:10:00;;;;;;;6.22;3.45;;;32.80;1.00;;;;;;10514180;28;20302;-86
2022/07/19 12:15:22;;;;;;;3.63;2.88;;;32.70;1.00;;;;;;10535893;28;20213;-88
2022/07/19 12:20:45;;;;;;;6.40;3.13;;;32.70;1.00;;;;;;10520969;28;20234;-85
2022/07/19 12:26:08;;;;;;;4.90;3.10;;;32.50;1.00;;;;;;10505449;28;20199;-83
2022/07/19 12:31:44;;;;;;;2.50;2.30;;;32.70;1.00;;;;;;10518776;28;20219;-86
2022/07/19 12:37:22;;;;;;;7.53;2.65;;;32.70;1.00;;;;;;10517657;28;20192;-86
2022/07/19 12:42:47;;;;;;;5.75;3.15;;;32.60;1.00;;;;;;10519102;28;20298;-85
2022/07/19 12:48:13;;;;;;;4.43;2.92;;;32.50;1.00;;;;;;10518670;28;20329;-87
2022/07/19 12:53:34;;;;;;;5.40;2.63;;;32.60;1.00;;;;;;10517807;28;20582;-85
2022/07/19 13:04:36;;;;;;;3.08;2.78;;;32.40;1.00;;;;;;10478906;28;20259;-85
2022/07/19 13:09:57;;;;;;;5.72;2.75;;;32.40;1.00;;;;;;10463159;28;20230;-86
2022/07/19 13:15:19;;;;;;;4.50;2.95;;;32.30;1.00;;;;;;10450970;28;20417;-87
2022/07/19 13:20:41;;;;;;;6.82;2.85;;;32.40;1.00;;;;;;10470276;28;20258;-87
2022/07/19 13:26:03;;;;;;;4.65;2.70;;;32.50;1.00;;;;;;10492249;28;20284;-82
2022/07/19 13:31:24;;;;;;;6.60;2.72;;;32.50;1.00;;;;;;10474315;28;20234;-84
2022/07/19 13:36:45;;;;;;;3.40;2.17;;;32.30;1.00;;;;;;10435228;28;20204;-84
2022/07/19 13:42:07;;;;;;;4.85;2.38;;;32.10;1.00;;;;;;10435840;28;20239;-83
2022/07/19 13:47:29;;;;;;;4.75;2.30;;;32.00;1.00;;;;;;10435886;28;20211;-83
2022/07/19 13:52:50;;;;;;;5.30;2.15;;;32.00;1.00;;;;;;10487590;28;20233;-84
2022/07/19 13:58:11;;;;;;;5.10;4.60;;;32.00;1.00;;;;;;10470379;28;20219;-81
2022/07/19 14:03:32;;;;;;;3.65;2.72;;;31.90;1.00;;;;;;10473443;28;20228;-84
2022/07/19 14:08:54;;;;;;;3.55;2.65;;;31.60;1.00;;;;;;10460887;28;20434;-82
2022/07/19 14:14:16;;;;;;;13.20;3.20;;;31.40;1.00;;;;;;10472692;28;20386;-83
2022/07/19 14:19:38;;;;;;;3.60;2.35;;;31.20;1.00;;;;;;10470918;28;20199;-83
2022/07/19 14:24:59;;;;;;;4.80;2.05;;;31.10;1.00;;;;;;10472571;28;20207;-82
2022/07/19 14:30:22;;;;;;;3.28;2.00;;;31.00;1.00;;;;;;10471886;28;20218;-80
2022/07/19 14:35:44;;;;;;;2.95;2.38;;;31.00;1.00;;;;;;10472303;28;20192;-82
2022/07/19 14:41:06;;;;;;;4.80;2.80;;;30.80;1.00;;;;;;10472195;28;20302;-81
2022/07/19 14:46:27;;;;;;;6.22;3.20;;;30.70;1.00;;;;;;10473433;28;20431;-81
2022/07/19 14:51:49;;;;;;;6.38;2.80;;;30.60;1.00;;;;;;10471945;28;20226;-80
2022/07/19 14:57:10;;;;;;;8.20;3.10;;;30.30;1.00;;;;;;10472565;28;20211;-83
2022/07/19 15:10:10;;;;;;;2.78;2.15;;;30.10;1.00;;;;;;10495629;28;20215;-82
2022/07/19 15:15:31;;;;;;;3.75;2.25;;;29.90;1.00;;;;;;10504284;28;20221;-79
2022/07/19 15:20:53;;;;;;;3.38;2.53;;;29.80;1.00;;;;;;10480155;28;20517;-80
2022/07/19 15:26:14;;;;;;;3.40;2.50;;;29.70;1.00;;;;;;10476251;28;20203;-82
2022/07/19 15:38:18;;;;;;;3.42;2.50;;;29.40;1.00;;;;;;10485148;28;20255;-84
2022/07/19 15:43:39;;;;;;;5.80;3.20;;;29.20;1.00;;;;;;10469974;28;20230;-79
2022/07/19 15:49:03;;;;;;;2.63;2.00;;;29.10;1.00;;;;;;10497650;28;20478;-79
2022/07/19 15:54:24;;;;;;;5.32;2.55;;;29.10;1.00;;;;;;10497676;28;20449;-84
2022/07/19 15:59:46;;;;;;;3.78;2.45;;;29.00;1.00;;;;;;10488133;28;20196;-79
2022/07/19 16:05:09;;;;;;;6.13;2.55;;;28.90;1.00;;;;;;10483682;28;20200;-85
2022/07/19 16:10:31;;;;;;;3.50;2.60;;;28.80;1.00;;;;;;10485553;28;20223;-84
2022/07/19 16:15:52;;;;;;;3.70;2.75;;;28.60;1.00;;;;;;10484004;28;20187;-86
2022/07/19 16:21:14;;;;;;;4.60;2.50;;;28.50;1.00;;;;;;10482099;28;20246;-80
2022/07/19 16:26:36;;;;;;;2.78;2.10;;;28.40;1.00;;;;;;10482350;28;20195;-86
2022/07/19 16:32:08;;;;;;;4.43;2.70;;;28.30;1.00;;;;;;10481561;28;20195;-83
2022/07/19 16:37:29;;;;;;;6.35;3.05;;;28.20;1.00;;;;;;10481773;28;20226;-84
2022/07/19 16:42:50;;;;;;;3.90;3.05;;;28.10;1.00;;;;;;10480953;28;20386;-85
2022/07/19 16:48:25;;;;;;;9.05;3.50;;;28.10;1.00;;;;;;10486054;28;20196;-79
2022/07/19 16:53:46;;;;;;;3.20;2.67;;;27.90;1.00;;;;;;10483876;28;20195;-87
2022/07/19 16:59:08;;;;;;;4.93;3.28;;;27.80;1.00;;;;;;10493882;28;20199;-85
2022/07/19 17:04:29;;;;;;;5.40;2.80;;;27.60;1.00;;;;;;10497208;28;20223;-82
2022/07/19 17:09:51;;;;;;;2.60;2.40;;;27.50;1.00;;;;;;10481966;28;20230;-85
2022/07/19 17:15:26;;;;;;;4.43;2.70;;;27.50;1.00;;;;;;10495848;28;20203;-79
2022/07/19 17:20:47;;;;;;;4.55;3.25;;;27.40;1.00;;;;;;10480953;28;20208;-83
2022/07/19 17:26:09;;;;;;;6.85;3.72;;;27.30;1.00;;;;;;10480091;28;20195;-83
2022/07/19 17:31:31;;;;;;;6.05;3.17;;;27.10;1.00;;;;;;10479166;28;20203;-84
2022/07/19 17:36:52;;;;;;;3.13;2.83;;;27.00;1.00;;;;;;10468218;28;20216;-83
2022/07/19 17:42:13;;;;;;;3.92;2.80;;;26.90;19.70;;;;;;10479913;28;20273;-85
2022/07/19 17:47:35;;;;;;;4.47;3.08;;;26.80;41.30;;;;;;10479347;28;20202;-83
2022/07/19 17:52:57;;;;;;;3.97;2.92;;;26.60;59.10;;;;;;10478945;28;20184;-85
2022/07/19 17:58:19;;;;;;;4.80;3.35;;;26.50;86.70;;;;;;10475651;28;20203;-80
2022/07/19 18:03:40;;;;;;;5.05;3.85;;;26.40;99.90;;;;;;10494809;28;20406;-84
2022/07/19 18:09:02;;;;;;;4.30;3.33;;;26.30;99.90;;;;;;10478959;28;20219;-79
2022/07/19 18:14:24;;;;;;;5.45;3.63;;;26.10;99.90;;;;;;10479031;28;20192;-85
2022/07/19 18:19:45;;;;;;;4.30;3.65;;;26.00;99.90;;;;;;10477897;28;20188;-86
2022/07/19 18:25:07;;;;;;;5.18;3.90;;;25.80;99.90;;;;;;10463615;28;20227;-83
2022/07/19 18:30:29;;;;;;;8.35;4.20;;;25.70;99.90;;;;;;10463038;28;20512;-84
2022/07/19 18:35:50;;;;;;;6.70;4.20;;;25.50;1.00;;;;;;10478477;28;20192;-79
2022/07/19 18:41:12;;;;;;;5.60;4.07;;;25.30;1.00;;;;;;10477209;28;20222;-84
2022/07/19 18:46:33;;;;;;;6.05;4.60;;;25.20;1.00;;;;;;10478564;28;20381;-81
2022/07/19 18:51:55;;;;;;;8.95;5.40;;;25.10;1.00;;;;;;10476832;28;20569;-82
2022/07/19 18:57:17;;;;;;;6.32;4.63;;;25.00;1.00;;;;;;10483892;28;20195;-85
2022/07/19 19:02:38;;;;;;;6.63;4.97;;;24.90;99.90;;;;;;10476609;28;20387;-78
2022/07/19 19:07:59;;;;;;;5.82;4.55;;;24.60;1.00;;;;;;10480586;28;20188;-78
2022/07/19 19:13:21;;;;;;;7.05;4.60;;;24.50;1.00;;;;;;10484506;28;20231;-78
2022/07/19 19:18:42;;;;;;;6.57;5.20;;;24.40;99.90;;;;;;10470209;28;20199;-78
2022/07/19 19:24:09;;;;;;;6.60;5.32;;;24.20;99.90;;;;;;10485495;28;20218;-79
2022/07/19 19:29:31;;;;;;;8.30;5.95;;;24.00;92.90;;;;;;10484889;28;20266;-84
2022/07/19 19:35:05;;;;;;;9.48;6.35;;;23.80;1.00;;;;;;10484823;28;20195;-81
2022/07/19 19:40:26;;;;;;;15.75;10.63;;;23.60;99.90;;;;;;10484572;28;20486;-84
2022/07/19 19:45:48;;;;;;;13.60;8.98;;;23.30;1.00;;;;;;10485360;28;20261;-81
2022/07/19 19:51:10;;;;;;;11.63;8.30;;;23.30;1.00;;;;;;10483897;28;20203;-87
2022/07/19 19:56:32;;;;;;;13.38;7.10;;;23.10;99.90;;;;;;10485783;28;20196;-85
2022/07/19 20:01:54;;;;;;;17.35;8.95;;;22.90;1.00;;;;;;10456505;28;20220;-86
2022/07/19 20:07:16;;;;;;;13.70;9.35;;;22.80;1.00;;;;;;10493039;28;20192;-83
2022/07/19 20:12:37;;;;;;;31.63;15.85;;;22.80;1.00;;;;;;10485604;28;20262;-85
2022/07/19 20:17:59;;;;;;;27.52;14.90;;;22.80;1.00;;;;;;10469065;28;20498;-80
2022/07/19 20:23:21;;;;;;;17.63;12.18;;;22.40;1.00;;;;;;10482134;28;20243;-87
2022/07/19 20:28:43;;;;;;;21.42;12.45;;;22.40;1.00;;;;;;10483366;28;20214;-82
2022/07/19 20:34:04;;;;;;;18.85;11.38;;;22.30;99.90;;;;;;10482025;28;20195;-83
2022/07/19 20:39:26;;;;;;;18.88;12.18;;;22.20;1.00;;;;;;10481911;28;20187;-86
2022/07/19 20:44:50;;;;;;;17.08;12.43;;;22.20;90.30;;;;;;10482176;28;20235;-85
2022/07/19 20:50:12;;;;;;;18.85;11.27;;;22.10;97.00;;;;;;10457011;28;20216;-86
2022/07/19 20:55:33;;;;;;;17.02;10.60;;;22.00;99.90;;;;;;10475184;28;20204;-80
2022/07/19 21:00:55;;;;;;;13.80;9.32;;;21.90;99.90;;;;;;10495289;28;20196;-81
2022/07/19 21:06:16;;;;;;;19.55;9.82;;;21.80;99.90;;;;;;10497502;28;20460;-81
2022/07/19 21:11:38;;;;;;;12.90;10.10;;;21.70;99.90;;;;;;10483568;28;20231;-87
2022/07/19 21:16:59;;;;;;;17.67;8.82;;;21.60;99.90;;;;;;10480829;28;20196;-85
2022/07/19 21:22:21;;;;;;;12.52;8.90;;;21.40;99.90;;;;;;10496037;28;20215;-83
2022/07/19 21:27:42;;;;;;;11.13;8.00;;;21.10;1.00;;;;;;10481135;28;20184;-84
2022/07/19 21:33:04;;;;;;;12.75;7.70;;;21.20;1.00;;;;;;10464808;28;20237;-87
2022/07/19 21:38:25;;;;;;;10.45;6.85;;;21.10;1.00;;;;;;10465563;28;20195;-85
2022/07/19 21:43:48;;;;;;;12.68;8.05;;;21.00;1.00;;;;;;10479011;28;20321;-84
2022/07/19 21:49:09;;;;;;;16.92;6.95;;;21.00;1.00;;;;;;10439203;28;20211;-85
2022/07/19 21:54:31;;;;;;;13.32;8.82;;;21.00;1.00;;;;;;10456049;28;20200;-85
2022/07/19 21:59:52;;;;;;;12.60;8.18;;;20.80;1.00;;;;;;10460463;28;20199;-86
2022/07/19 22:05:14;;;;;;;12.57;7.25;;;20.80;1.00;;;;;;10494713;28;20219;-86
2022/07/19 22:10:35;;;;;;;11.40;7.38;;;20.70;1.00;;;;;;10479213;28;20303;-85
2022/07/19 22:15:57;;;;;;;11.75;7.97;;;20.80;1.00;;;;;;10479173;28;20198;-85
2022/07/19 22:21:18;;;;;;;8.50;6.20;;;20.70;1.00;;;;;;10477566;28;20257;-80
2022/07/19 22:26:39;;;;;;;11.75;7.40;;;20.60;1.00;;;;;;10478885;28;20192;-80
2022/07/19 22:32:04;;;;;;;9.88;7.93;;;20.60;1.00;;;;;;10463863;28;20192;-79
2022/07/19 22:37:26;;;;;;;11.18;8.10;;;20.40;1.00;;;;;;10477877;28;20214;-79
2022/07/19 22:42:47;;;;;;;11.77;7.88;;;20.30;1.00;;;;;;10476053;28;20310;-80
2022/07/19 22:48:11;;;;;;;9.43;7.70;;;;;;;;;;10477032;28;20202;-80
2022/07/19 22:53:33;;;;;;;13.02;8.98;;;20.10;1.00;;;;;;10462840;28;20253;-80
2022/07/19 22:58:54;;;;;;;11.30;8.25;;;;;;;;;;10480452;28;20206;-81
2022/07/19 23:04:16;;;;;;;11.10;8.40;;;19.90;1.00;;;;;;10493076;28;20227;-86
2022/07/19 23:09:37;;;;;;;10.68;8.45;;;19.90;1.00;;;;;;10476591;28;20307;-84
2022/07/19 23:14:59;;;;;;;13.80;8.52;;;19.90;1.00;;;;;;10477505;28;20203;-81
2022/07/19 23:20:21;;;;;;;12.35;8.30;;;19.80;1.00;;;;;;10476428;28;20245;-87
2022/07/19 23:25:42;;;;;;;18.55;8.95;;;;;;;;;;10476777;28;20290;-85
2022/07/19 23:31:04;;;;;;;11.98;9.15;;;;;;;;;;10476065;28;20245;-86
2022/07/19 23:36:26;;;;;;;17.83;8.63;;;;;;;;;;10477701;28;20234;-86
2022/07/19 23:41:47;;;;;;;15.35;9.50;;;19.50;1.00;;;;;;10476028;28;20219;-85
2022/07/19 23:47:09;;;;;;;14.77;9.27;;;;;;;;;;10476414;28;20238;-80
2022/07/19 23:52:30;;;;;;;10.40;8.10;;;;;;;;;;10476378;28;20192;-80
2022/07/19 23:57:52;;;;;;;11.73;7.25;;;;;;;;;;10487051;28;20282;-79
